sensor_id;sensor_type;location;lat;lon;timestamp;pressure;altitude;pressure_sealevel;temperature
49567;BMP280;35472;50.514;30.448;2024-01-25T00:01:06;98910.47;;;3.21
49567;BMP280;35472;50.514;30.448;2024-01-25T00:03:31;98917.00;;;3.34
49567;BMP280;35472;50.514;30.448;2024-01-25T00:05:56;98915.47;;;3.29
49567;BMP280;35472;50.514;30.448;2024-01-25T00:08:22;98917.00;;;3.34
49567;BMP280;35472;50.514;30.448;2024-01-25T00:10:47;98917.94;;;3.63
49567;BMP280;35472;50.514;30.448;2024-01-25T00:13:13;98917.06;;;3.41
49567;BMP280;35472;50.514;30.448;2024-01-25T00:15:38;98911.69;;;3.30
49567;BMP280;35472;50.514;30.448;2024-01-25T00:18:03;98912.47;;;3.38
49567;BMP280;35472;50.514;30.448;2024-01-25T00:20:29;98907.84;;;3.24
49567;BMP280;35472;50.514;30.448;2024-01-25T00:22:56;98899.38;;;3.08
49567;BMP280;35472;50.514;30.448;2024-01-25T00:25:21;98906.69;;;3.25
49567;BMP280;35472;50.514;30.448;2024-01-25T00:27:47;98899.94;;;3.39
49567;BMP280;35472;50.514;30.448;2024-01-25T00:30:13;98899.25;;;3.45
49567;BMP280;35472;50.514;30.448;2024-01-25T00:32:38;98895.72;;;3.30
49567;BMP280;35472;50.514;30.448;2024-01-25T00:35:04;98907.28;;;3.59
49567;BMP280;35472;50.514;30.448;2024-01-25T00:37:29;98894.00;;;3.59
49567;BMP280;35472;50.514;30.448;2024-01-25T00:39:55;98889.31;;;3.39
49567;BMP280;35472;50.514;30.448;2024-01-25T00:42:22;98895.81;;;3.41
49567;BMP280;35472;50.514;30.448;2024-01-25T00:44:48;98890.00;;;3.28
49567;BMP280;35472;50.514;30.448;2024-01-25T00:47:14;98888.94;;;3.37
49567;BMP280;35472;50.514;30.448;2024-01-25T00:49:40;98882.25;;;3.64
49567;BMP280;35472;50.514;30.448;2024-01-25T00:52:05;98883.41;;;3.70
49567;BMP280;35472;50.514;30.448;2024-01-25T00:54:33;98872.72;;;3.63
49567;BMP280;35472;50.514;30.448;2024-01-25T00:56:59;98867.41;;;3.63
49567;BMP280;35472;50.514;30.448;2024-01-25T00:59:25;98876.22;;;3.77
49567;BMP280;35472;50.514;30.448;2024-01-25T01:01:52;98865.13;;;3.61
49567;BMP280;35472;50.514;30.448;2024-01-25T01:04:18;98863.28;;;3.72
49567;BMP280;35472;50.514;30.448;2024-01-25T01:06:44;98862.13;;;3.70
49567;BMP280;35472;50.514;30.448;2024-01-25T01:09:09;98866.19;;;3.50
49567;BMP280;35472;50.514;30.448;2024-01-25T01:11:36;98867.44;;;3.70
49567;BMP280;35472;50.514;30.448;2024-01-25T01:14:01;98861.38;;;3.69
49567;BMP280;35472;50.514;30.448;2024-01-25T01:16:29;98854.09;;;3.59
49567;BMP280;35472;50.514;30.448;2024-01-25T01:18:58;98859.47;;;3.73
49567;BMP280;35472;50.514;30.448;2024-01-25T01:21:30;98845.81;;;3.82
49567;BMP280;35472;50.514;30.448;2024-01-25T01:23:55;98849.59;;;3.70
49567;BMP280;35472;50.514;30.448;2024-01-25T01:26:21;98843.19;;;3.86
49567;BMP280;35472;50.514;30.448;2024-01-25T01:28:46;98834.09;;;3.90
49567;BMP280;35472;50.514;30.448;2024-01-25T01:31:11;98835.97;;;3.86
49567;BMP280;35472;50.514;30.448;2024-01-25T01:33:37;98826.84;;;3.84
49567;BMP280;35472;50.514;30.448;2024-01-25T01:36:02;98828.69;;;3.72
49567;BMP280;35472;50.514;30.448;2024-01-25T01:38:27;98832.53;;;3.82
49567;BMP280;35472;50.514;30.448;2024-01-25T01:40:53;98828.31;;;3.77
49567;BMP280;35472;50.514;30.448;2024-01-25T01:43:19;98829.16;;;3.92
49567;BMP280;35472;50.514;30.448;2024-01-25T01:45:47;98822.69;;;3.86
49567;BMP280;35472;50.514;30.448;2024-01-25T01:48:12;98819.22;;;3.82
49567;BMP280;35472;50.514;30.448;2024-01-25T01:50:37;98823.44;;;3.90
49567;BMP280;35472;50.514;30.448;2024-01-25T01:53:03;98820.41;;;3.99
49567;BMP280;35472;50.514;30.448;2024-01-25T01:55:30;98812.78;;;3.83
49567;BMP280;35472;50.514;30.448;2024-01-25T01:57:56;98813.50;;;3.76
49567;BMP280;35472;50.514;30.448;2024-01-25T02:00:23;98805.56;;;3.94
49567;BMP280;35472;50.514;30.448;2024-01-25T02:02:50;98808.59;;;4.00
49567;BMP280;35472;50.514;30.448;2024-01-25T02:05:15;98799.13;;;4.06
49567;BMP280;35472;50.514;30.448;2024-01-25T02:07:42;98801.75;;;3.95
49567;BMP280;35472;50.514;30.448;2024-01-25T02:10:08;98791.91;;;3.99
49567;BMP280;35472;50.514;30.448;2024-01-25T02:12:34;98792.28;;;4.01
49567;BMP280;35472;50.514;30.448;2024-01-25T02:14:59;98788.47;;;3.88
49567;BMP280;35472;50.514;30.448;2024-01-25T02:17:25;98794.19;;;3.90
49567;BMP280;35472;50.514;30.448;2024-01-25T02:19:52;98796.50;;;4.09
49567;BMP280;35472;50.514;30.448;2024-01-25T02:22:19;98792.69;;;4.14
49567;BMP280;35472;50.514;30.448;2024-01-25T02:24:44;98785.06;;;4.19
49567;BMP280;35472;50.514;30.448;2024-01-25T02:27:10;98779.34;;;4.00
49567;BMP280;35472;50.514;30.448;2024-01-25T02:29:37;98780.88;;;4.08
49567;BMP280;35472;50.514;30.448;2024-01-25T02:32:03;98784.69;;;4.03
49567;BMP280;35472;50.514;30.448;2024-01-25T02:34:29;98771.38;;;4.17
49567;BMP280;35472;50.514;30.448;2024-01-25T02:36:54;98778.97;;;4.15
49567;BMP280;35472;50.514;30.448;2024-01-25T02:39:19;98769.09;;;4.12
49567;BMP280;35472;50.514;30.448;2024-01-25T02:41:45;98771.38;;;4.07
49567;BMP280;35472;50.514;30.448;2024-01-25T02:44:11;98772.13;;;4.00
49567;BMP280;35472;50.514;30.448;2024-01-25T02:46:37;98771.41;;;4.14
49567;BMP280;35472;50.514;30.448;2024-01-25T02:49:03;98756.94;;;4.15
49567;BMP280;35472;50.514;30.448;2024-01-25T02:51:29;98762.63;;;4.03
49567;BMP280;35472;50.514;30.448;2024-01-25T02:53:54;98761.13;;;4.05
49567;BMP280;35472;50.514;30.448;2024-01-25T02:56:20;98762.66;;;4.17
49567;BMP280;35472;50.514;30.448;2024-01-25T02:58:45;98762.25;;;4.15
49567;BMP280;35472;50.514;30.448;2024-01-25T03:01:10;98760.34;;;4.15
49567;BMP280;35472;50.514;30.448;2024-01-25T03:03:36;98763.44;;;4.35
49567;BMP280;35472;50.514;30.448;2024-01-25T03:06:02;98760.00;;;4.24
49567;BMP280;35472;50.514;30.448;2024-01-25T03:08:28;98744.75;;;4.21
49567;BMP280;35472;50.514;30.448;2024-01-25T03:10:53;98754.66;;;4.28
49567;BMP280;35472;50.514;30.448;2024-01-25T03:13:18;98749.72;;;4.37
49567;BMP280;35472;50.514;30.448;2024-01-25T03:15:44;98739.06;;;4.37
49567;BMP280;35472;50.514;30.448;2024-01-25T03:18:10;98744.00;;;4.42
49567;BMP280;35472;50.514;30.448;2024-01-25T03:20:36;98743.25;;;4.41
49567;BMP280;35472;50.514;30.448;2024-01-25T03:23:01;98740.56;;;4.38
49567;BMP280;35472;50.514;30.448;2024-01-25T03:25:28;98735.63;;;4.54
49567;BMP280;35472;50.514;30.448;2024-01-25T03:27:53;98732.94;;;4.64
49567;BMP280;35472;50.514;30.448;2024-01-25T03:30:18;98735.59;;;4.57
49567;BMP280;35472;50.514;30.448;2024-01-25T03:32:45;98732.59;;;4.52
49567;BMP280;35472;50.514;30.448;2024-01-25T03:35:11;98731.84;;;4.48
49567;BMP280;35472;50.514;30.448;2024-01-25T03:37:36;98739.44;;;4.39
49567;BMP280;35472;50.514;30.448;2024-01-25T03:40:02;98732.56;;;4.59
49567;BMP280;35472;50.514;30.448;2024-01-25T03:42:31;98735.97;;;4.70
49567;BMP280;35472;50.514;30.448;2024-01-25T03:44:56;98734.84;;;4.57
49567;BMP280;35472;50.514;30.448;2024-01-25T03:47:22;98730.69;;;4.45
49567;BMP280;35472;50.514;30.448;2024-01-25T03:49:47;98728.78;;;4.42
49567;BMP280;35472;50.514;30.448;2024-01-25T03:52:12;98734.09;;;4.60
49567;BMP280;35472;50.514;30.448;2024-01-25T03:54:38;98725.31;;;4.56
49567;BMP280;35472;50.514;30.448;2024-01-25T03:57:06;98728.00;;;4.59
49567;BMP280;35472;50.514;30.448;2024-01-25T03:59:32;98733.69;;;4.72
49567;BMP280;35472;50.514;30.448;2024-01-25T04:01:57;98732.56;;;4.55
49567;BMP280;35472;50.514;30.448;2024-01-25T04:04:22;98728.00;;;4.66
49567;BMP280;35472;50.514;30.448;2024-01-25T04:06:48;98720.78;;;4.46
49567;BMP280;35472;50.514;30.448;2024-01-25T04:09:13;98724.97;;;4.47
49567;BMP280;35472;50.514;30.448;2024-01-25T04:11:42;98717.72;;;4.58
49567;BMP280;35472;50.514;30.448;2024-01-25T04:14:10;98717.69;;;4.68
49567;BMP280;35472;50.514;30.448;2024-01-25T04:16:35;98724.97;;;4.61
49567;BMP280;35472;50.514;30.448;2024-01-25T04:19:01;98716.97;;;4.61
49567;BMP280;35472;50.514;30.448;2024-01-25T04:21:27;98715.84;;;4.41
49567;BMP280;35472;50.514;30.448;2024-01-25T04:23:52;98718.91;;;4.46
49567;BMP280;35472;50.514;30.448;2024-01-25T04:26:17;98719.66;;;4.47
49567;BMP280;35472;50.514;30.448;2024-01-25T04:28:43;98712.41;;;4.44
49567;BMP280;35472;50.514;30.448;2024-01-25T04:31:08;98707.09;;;4.51
49567;BMP280;35472;50.514;30.448;2024-01-25T04:33:34;98712.06;;;4.49
49567;BMP280;35472;50.514;30.448;2024-01-25T04:35:59;98704.06;;;4.31
49567;BMP280;35472;50.514;30.448;2024-01-25T04:38:25;98709.00;;;4.54
49567;BMP280;35472;50.514;30.448;2024-01-25T04:40:50;98710.50;;;4.37
49567;BMP280;35472;50.514;30.448;2024-01-25T04:43:16;98711.66;;;4.50
49567;BMP280;35472;50.514;30.448;2024-01-25T04:45:41;98705.94;;;4.55
49567;BMP280;35472;50.514;30.448;2024-01-25T04:48:07;98711.25;;;4.59
49567;BMP280;35472;50.514;30.448;2024-01-25T04:50:32;98709.41;;;4.49
49567;BMP280;35472;50.514;30.448;2024-01-25T04:52:57;98703.28;;;4.45
49567;BMP280;35472;50.514;30.448;2024-01-25T04:55:23;98707.09;;;4.51
49567;BMP280;35472;50.514;30.448;2024-01-25T04:57:48;98702.50;;;4.65
49567;BMP280;35472;50.514;30.448;2024-01-25T05:00:21;98690.38;;;4.47
49567;BMP280;35472;50.514;30.448;2024-01-25T05:02:47;98700.63;;;4.45
49567;BMP280;35472;50.514;30.448;2024-01-25T05:05:13;98694.50;;;4.69
49567;BMP280;35472;50.514;30.448;2024-01-25T05:07:38;98697.50;;;4.78
49567;BMP280;35472;50.514;30.448;2024-01-25T05:10:04;98699.03;;;4.79
49567;BMP280;35472;50.514;30.448;2024-01-25T05:12:30;98700.53;;;4.77
49567;BMP280;35472;50.514;30.448;2024-01-25T05:14:55;98707.44;;;4.60
49567;BMP280;35472;50.514;30.448;2024-01-25T05:17:21;98701.34;;;4.56
49567;BMP280;35472;50.514;30.448;2024-01-25T05:19:48;98704.41;;;4.61
49567;BMP280;35472;50.514;30.448;2024-01-25T05:22:13;98705.16;;;4.69
49567;BMP280;35472;50.514;30.448;2024-01-25T05:24:43;98706.63;;;4.84
49567;BMP280;35472;50.514;30.448;2024-01-25T05:27:09;98708.94;;;4.79
49567;BMP280;35472;50.514;30.448;2024-01-25T05:29:34;98701.38;;;4.66
49567;BMP280;35472;50.514;30.448;2024-01-25T05:31:59;98707.09;;;4.54
49567;BMP280;35472;50.514;30.448;2024-01-25T05:34:25;98710.91;;;4.53
49567;BMP280;35472;50.514;30.448;2024-01-25T05:36:50;98705.56;;;4.60
49567;BMP280;35472;50.514;30.448;2024-01-25T05:39:16;98701.34;;;4.63
49567;BMP280;35472;50.514;30.448;2024-01-25T05:41:42;98711.63;;;4.68
49567;BMP280;35472;50.514;30.448;2024-01-25T05:44:12;98712.41;;;4.51
49567;BMP280;35472;50.514;30.448;2024-01-25T05:46:38;98706.25;;;4.82
49567;BMP280;35472;50.514;30.448;2024-01-25T05:49:03;98706.94;;;4.93
49567;BMP280;35472;50.514;30.448;2024-01-25T05:51:29;98703.91;;;4.98
49567;BMP280;35472;50.514;30.448;2024-01-25T05:53:54;98707.38;;;4.85
49567;BMP280;35472;50.514;30.448;2024-01-25T05:56:20;98713.50;;;4.78
49567;BMP280;35472;50.514;30.448;2024-01-25T05:58:45;98707.41;;;4.78
49567;BMP280;35472;50.514;30.448;2024-01-25T06:01:11;98704.78;;;4.67
49567;BMP280;35472;50.514;30.448;2024-01-25T06:03:36;98701.34;;;4.56
49567;BMP280;35472;50.514;30.448;2024-01-25T06:06:02;98700.25;;;4.46
49567;BMP280;35472;50.514;30.448;2024-01-25T06:08:27;98702.84;;;4.78
49567;BMP280;35472;50.514;30.448;2024-01-25T06:10:55;98701.28;;;4.81
49567;BMP280;35472;50.514;30.448;2024-01-25T06:13:20;98692.94;;;4.79
49567;BMP280;35472;50.514;30.448;2024-01-25T06:15:45;98694.03;;;4.88
49567;BMP280;35472;50.514;30.448;2024-01-25T06:18:11;98688.78;;;4.56
49567;BMP280;35472;50.514;30.448;2024-01-25T06:20:36;98687.59;;;4.79
49567;BMP280;35472;50.514;30.448;2024-01-25T06:23:01;98690.31;;;4.72
49567;BMP280;35472;50.514;30.448;2024-01-25T06:25:27;98685.75;;;4.72
49567;BMP280;35472;50.514;30.448;2024-01-25T06:27:56;98689.50;;;4.78
49567;BMP280;35472;50.514;30.448;2024-01-25T06:30:22;98678.09;;;4.85
49567;BMP280;35472;50.514;30.448;2024-01-25T06:32:48;98686.09;;;4.74
49567;BMP280;35472;50.514;30.448;2024-01-25T06:35:14;98683.03;;;4.83
49567;BMP280;35472;50.514;30.448;2024-01-25T06:37:39;98677.75;;;4.72
49567;BMP280;35472;50.514;30.448;2024-01-25T06:40:06;98676.13;;;4.92
49567;BMP280;35472;50.514;30.448;2024-01-25T06:42:31;98681.13;;;4.83
49567;BMP280;35472;50.514;30.448;2024-01-25T06:44:59;98682.19;;;5.00
49567;BMP280;35472;50.514;30.448;2024-01-25T06:47:24;98677.38;;;4.63
49567;BMP280;35472;50.514;30.448;2024-01-25T06:49:50;98678.09;;;4.78
49567;BMP280;35472;50.514;30.448;2024-01-25T06:52:17;98677.63;;;4.93
49567;BMP280;35472;50.514;30.448;2024-01-25T06:54:43;98683.03;;;4.79
49567;BMP280;35472;50.514;30.448;2024-01-25T06:57:08;98676.47;;;5.01
49567;BMP280;35472;50.514;30.448;2024-01-25T06:59:34;98674.13;;;5.14
49567;BMP280;35472;50.514;30.448;2024-01-25T07:01:59;98673.13;;;4.90
49567;BMP280;35472;50.514;30.448;2024-01-25T07:04:25;98676.00;;;5.21
49567;BMP280;35472;50.514;30.448;2024-01-25T07:06:51;98673.06;;;4.94
49567;BMP280;35472;50.514;30.448;2024-01-25T07:09:16;98672.25;;;5.11
49567;BMP280;35472;50.514;30.448;2024-01-25T07:11:42;98674.97;;;5.00
49567;BMP280;35472;50.514;30.448;2024-01-25T07:14:07;98682.19;;;5.03
49567;BMP280;35472;50.514;30.448;2024-01-25T07:16:33;98678.00;;;5.02
49567;BMP280;35472;50.514;30.448;2024-01-25T07:18:58;98675.28;;;5.09
49567;BMP280;35472;50.514;30.448;2024-01-25T07:21:24;98674.09;;;5.21
49567;BMP280;35472;50.514;30.448;2024-01-25T07:23:49;98685.19;;;5.16
49567;BMP280;35472;50.514;30.448;2024-01-25T07:26:18;98673.81;;;5.01
49567;BMP280;35472;50.514;30.448;2024-01-25T07:28:44;98677.16;;;5.20
49567;BMP280;35472;50.514;30.448;2024-01-25T07:31:11;98683.25;;;5.13
49567;BMP280;35472;50.514;30.448;2024-01-25T07:33:37;98672.59;;;5.13
49567;BMP280;35472;50.514;30.448;2024-01-25T07:36:02;98677.91;;;5.20
49567;BMP280;35472;50.514;30.448;2024-01-25T07:38:28;98672.88;;;5.36
49567;BMP280;35472;50.514;30.448;2024-01-25T07:40:53;98676.78;;;5.14
49567;BMP280;35472;50.514;30.448;2024-01-25T07:43:20;98671.47;;;5.14
49567;BMP280;35472;50.514;30.448;2024-01-25T07:45:46;98670.19;;;5.40
49567;BMP280;35472;50.514;30.448;2024-01-25T07:48:11;98675.19;;;5.27
49567;BMP280;35472;50.514;30.448;2024-01-25T07:50:37;98671.78;;;5.30
49567;BMP280;35472;50.514;30.448;2024-01-25T07:53:02;98675.44;;;5.54
49567;BMP280;35472;50.514;30.448;2024-01-25T07:55:28;98667.13;;;5.41
49567;BMP280;35472;50.514;30.448;2024-01-25T07:57:55;98666.31;;;5.44
49567;BMP280;35472;50.514;30.448;2024-01-25T08:00:20;98669.38;;;5.46
49567;BMP280;35472;50.514;30.448;2024-01-25T08:02:46;98674.00;;;5.39
49567;BMP280;35472;50.514;30.448;2024-01-25T08:05:11;98676.22;;;5.44
49567;BMP280;35472;50.514;30.448;2024-01-25T08:07:36;98677.03;;;5.37
49567;BMP280;35472;50.514;30.448;2024-01-25T08:10:04;98668.47;;;5.64
49567;BMP280;35472;50.514;30.448;2024-01-25T08:12:29;98672.38;;;5.52
49567;BMP280;35472;50.514;30.448;2024-01-25T08:14:55;98668.47;;;5.67
49567;BMP280;35472;50.514;30.448;2024-01-25T08:17:20;98663.91;;;5.68
49567;BMP280;35472;50.514;30.448;2024-01-25T08:19:46;98678.94;;;5.88
49567;BMP280;35472;50.514;30.448;2024-01-25T08:22:12;98673.19;;;5.97
49567;BMP280;35472;50.514;30.448;2024-01-25T08:24:39;98669.44;;;5.87
49567;BMP280;35472;50.514;30.448;2024-01-25T08:27:05;98677.53;;;5.80
49567;BMP280;35472;50.514;30.448;2024-01-25T08:29:33;98676.34;;;5.85
49567;BMP280;35472;50.514;30.448;2024-01-25T08:31:58;98679.81;;;5.78
49567;BMP280;35472;50.514;30.448;2024-01-25T08:34:23;98679.03;;;5.81
49567;BMP280;35472;50.514;30.448;2024-01-25T08:36:49;98676.97;;;5.99
49567;BMP280;35472;50.514;30.448;2024-01-25T08:39:14;98679.63;;;5.51
49567;BMP280;35472;50.514;30.448;2024-01-25T08:41:41;98682.00;;;5.87
49567;BMP280;35472;50.514;30.448;2024-01-25T08:44:07;98684.63;;;5.97
49567;BMP280;35472;50.514;30.448;2024-01-25T08:46:33;98675.34;;;6.13
49567;BMP280;35472;50.514;30.448;2024-01-25T08:48:58;98680.63;;;6.16
49567;BMP280;35472;50.514;30.448;2024-01-25T08:51:24;98677.63;;;6.14
49567;BMP280;35472;50.514;30.448;2024-01-25T08:53:49;98687.78;;;5.82
49567;BMP280;35472;50.514;30.448;2024-01-25T08:56:16;98678.66;;;6.24
49567;BMP280;35472;50.514;30.448;2024-01-25T08:58:45;98683.59;;;6.25
49567;BMP280;35472;50.514;30.448;2024-01-25T09:01:12;98679.88;;;6.16
49567;BMP280;35472;50.514;30.448;2024-01-25T09:03:37;98677.03;;;6.33
49567;BMP280;35472;50.514;30.448;2024-01-25T09:06:03;98672.78;;;6.39
49567;BMP280;35472;50.514;30.448;2024-01-25T09:08:31;98678.50;;;6.38
49567;BMP280;35472;50.514;30.448;2024-01-25T09:10:57;98683.41;;;6.43
49567;BMP280;35472;50.514;30.448;2024-01-25T09:13:22;98673.53;;;6.40
49567;BMP280;35472;50.514;30.448;2024-01-25T09:15:48;98675.84;;;6.38
49567;BMP280;35472;50.514;30.448;2024-01-25T09:18:13;98678.44;;;6.45
49567;BMP280;35472;50.514;30.448;2024-01-25T09:20:39;98678.41;;;6.08
49567;BMP280;35472;50.514;30.448;2024-01-25T09:23:06;98677.03;;;6.33
49567;BMP280;35472;50.514;30.448;2024-01-25T09:25:33;98665.00;;;6.52
49567;BMP280;35472;50.514;30.448;2024-01-25T09:27:59;98667.84;;;6.68
49567;BMP280;35472;50.514;30.448;2024-01-25T09:30:25;98669.47;;;6.62
49567;BMP280;35472;50.514;30.448;2024-01-25T09:32:52;98668.31;;;6.63
49567;BMP280;35472;50.514;30.448;2024-01-25T09:35:19;98665.16;;;6.38
49567;BMP280;35472;50.514;30.448;2024-01-25T09:37:44;98660.31;;;6.26
49567;BMP280;35472;50.514;30.448;2024-01-25T09:40:10;98664.91;;;6.25
49567;BMP280;35472;50.514;30.448;2024-01-25T09:42:36;98660.56;;;6.38
49567;BMP280;35472;50.514;30.448;2024-01-25T09:45:08;98658.47;;;6.23
49567;BMP280;35472;50.514;30.448;2024-01-25T09:47:36;98663.72;;;6.30
49567;BMP280;35472;50.514;30.448;2024-01-25T09:50:02;98659.03;;;6.37
49567;BMP280;35472;50.514;30.448;2024-01-25T09:52:29;98656.69;;;6.43
49567;BMP280;35472;50.514;30.448;2024-01-25T09:54:58;98665.72;;;6.22
49567;BMP280;35472;50.514;30.448;2024-01-25T10:20:15;98646.31;;;6.52
49567;BMP280;35472;50.514;30.448;2024-01-25T10:22:41;98646.06;;;6.73
49567;BMP280;35472;50.514;30.448;2024-01-25T10:25:12;98646.50;;;6.99
49567;BMP280;35472;50.514;30.448;2024-01-25T10:27:38;98650.63;;;7.03
49567;BMP280;35472;50.514;30.448;2024-01-25T10:30:07;98642.06;;;6.85
49567;BMP280;35472;50.514;30.448;2024-01-25T10:32:35;98644.88;;;6.74
49567;BMP280;35472;50.514;30.448;2024-01-25T10:35:01;98646.66;;;6.84
49567;BMP280;35472;50.514;30.448;2024-01-25T10:37:28;98644.38;;;7.13
49567;BMP280;35472;50.514;30.448;2024-01-25T10:39:55;98635.91;;;6.61
49567;BMP280;35472;50.514;30.448;2024-01-25T10:42:25;98643.50;;;6.63
49567;BMP280;35472;50.514;30.448;2024-01-25T10:44:51;98638.03;;;7.04
49567;BMP280;35472;50.514;30.448;2024-01-25T10:47:17;98636.81;;;7.31
49567;BMP280;35472;50.514;30.448;2024-01-25T10:49:43;98631.31;;;6.92
49567;BMP280;35472;50.514;30.448;2024-01-25T10:52:11;98638.06;;;7.27
49567;BMP280;35472;50.514;30.448;2024-01-25T10:54:37;98640.59;;;7.11
49567;BMP280;35472;50.514;30.448;2024-01-25T10:57:05;98630.81;;;7.51
49567;BMP280;35472;50.514;30.448;2024-01-25T10:59:30;98635.59;;;7.86
49567;BMP280;35472;50.514;30.448;2024-01-25T11:01:56;98630.00;;;7.54
49567;BMP280;35472;50.514;30.448;2024-01-25T11:04:21;98635.97;;;7.38
49567;BMP280;35472;50.514;30.448;2024-01-25T11:06:47;98639.19;;;7.29
49567;BMP280;35472;50.514;30.448;2024-01-25T11:09:20;98638.88;;;7.24
49567;BMP280;35472;50.514;30.448;2024-01-25T11:11:47;98636.75;;;7.62
49567;BMP280;35472;50.514;30.448;2024-01-25T11:14:14;98628.72;;;7.38
49567;BMP280;35472;50.514;30.448;2024-01-25T11:16:42;98634.06;;;7.38
49567;BMP280;35472;50.514;30.448;2024-01-25T11:19:16;98633.78;;;7.06
49567;BMP280;35472;50.514;30.448;2024-01-25T11:21:52;98627.19;;;7.37
49567;BMP280;35472;50.514;30.448;2024-01-25T11:24:24;98627.91;;;7.42
49567;BMP280;35472;50.514;30.448;2024-01-25T11:26:54;98624.00;;;7.46
49567;BMP280;35472;50.514;30.448;2024-01-25T11:29:21;98622.69;;;7.31
49567;BMP280;35472;50.514;30.448;2024-01-25T11:31:49;98624.31;;;7.52
49567;BMP280;35472;50.514;30.448;2024-01-25T11:34:15;98625.66;;;7.36
49567;BMP280;35472;50.514;30.448;2024-01-25T11:36:42;98624.13;;;7.39
49567;BMP280;35472;50.514;30.448;2024-01-25T11:39:14;98621.44;;;7.12
49567;BMP280;35472;50.514;30.448;2024-01-25T11:41:41;98628.31;;;7.40
49567;BMP280;35472;50.514;30.448;2024-01-25T11:44:09;98626.66;;;7.46
49567;BMP280;35472;50.514;30.448;2024-01-25T11:46:35;98631.25;;;7.46
49567;BMP280;35472;50.514;30.448;2024-01-25T11:49:00;98625.34;;;7.31
49567;BMP280;35472;50.514;30.448;2024-01-25T11:51:26;98636.34;;;7.40
49567;BMP280;35472;50.514;30.448;2024-01-25T11:53:51;98623.31;;;6.88
49567;BMP280;35472;50.514;30.448;2024-01-25T11:56:27;98629.41;;;7.43
49567;BMP280;35472;50.514;30.448;2024-01-25T11:58:53;98634.34;;;7.44
49567;BMP280;35472;50.514;30.448;2024-01-25T12:01:22;98633.34;;;7.34
49567;BMP280;35472;50.514;30.448;2024-01-25T12:03:50;98637.47;;;7.16
49567;BMP280;35472;50.514;30.448;2024-01-25T12:06:17;98632.88;;;7.16
49567;BMP280;35472;50.514;30.448;2024-01-25T12:08:42;98631.38;;;7.12
49567;BMP280;35472;50.514;30.448;2024-01-25T12:11:09;98640.81;;;7.47
49567;BMP280;35472;50.514;30.448;2024-01-25T12:13:35;98634.91;;;7.32
49567;BMP280;35472;50.514;30.448;2024-01-25T12:16:02;98634.31;;;7.48
49567;BMP280;35472;50.514;30.448;2024-01-25T12:18:31;98636.00;;;7.61
49567;BMP280;35472;50.514;30.448;2024-01-25T12:21:02;98631.22;;;7.49
49567;BMP280;35472;50.514;30.448;2024-01-25T12:23:37;98639.41;;;7.62
49567;BMP280;35472;50.514;30.448;2024-01-25T12:26:04;98637.78;;;7.68
49567;BMP280;35472;50.514;30.448;2024-01-25T12:28:31;98628.94;;;7.71
49567;BMP280;35472;50.514;30.448;2024-01-25T12:30:58;98634.59;;;7.53
49567;BMP280;35472;50.514;30.448;2024-01-25T12:33:24;98634.69;;;7.46
49567;BMP280;35472;50.514;30.448;2024-01-25T12:35:49;98632.22;;;7.59
49567;BMP280;35472;50.514;30.448;2024-01-25T12:38:15;98634.63;;;7.00
49567;BMP280;35472;50.514;30.448;2024-01-25T12:40:47;98641.00;;;7.36
49567;BMP280;35472;50.514;30.448;2024-01-25T12:43:14;98634.44;;;7.14
49567;BMP280;35472;50.514;30.448;2024-01-25T12:45:40;98635.81;;;6.95
49567;BMP280;35472;50.514;30.448;2024-01-25T12:48:05;98636.19;;;6.97
49567;BMP280;35472;50.514;30.448;2024-01-25T12:50:32;98635.69;;;7.06
49567;BMP280;35472;50.514;30.448;2024-01-25T12:52:57;98625.00;;;6.79
49567;BMP280;35472;50.514;30.448;2024-01-25T12:55:24;98629.41;;;6.89
49567;BMP280;35472;50.514;30.448;2024-01-25T12:57:50;98635.34;;;6.73
49567;BMP280;35472;50.514;30.448;2024-01-25T13:00:15;98634.81;;;6.85
49567;BMP280;35472;50.514;30.448;2024-01-25T13:02:43;98637.97;;;6.77
49567;BMP280;35472;50.514;30.448;2024-01-25T13:05:08;98635.78;;;6.68
49567;BMP280;35472;50.514;30.448;2024-01-25T13:07:34;98642.03;;;6.88
49567;BMP280;35472;50.514;30.448;2024-01-25T13:09:59;98638.47;;;6.99
49567;BMP280;35472;50.514;30.448;2024-01-25T13:12:24;98639.13;;;6.76
49567;BMP280;35472;50.514;30.448;2024-01-25T13:14:50;98639.91;;;6.76
49567;BMP280;35472;50.514;30.448;2024-01-25T13:17:15;98639.97;;;7.00
49567;BMP280;35472;50.514;30.448;2024-01-25T13:19:41;98642.63;;;7.00
49567;BMP280;35472;50.514;30.448;2024-01-25T13:22:06;98647.91;;;6.76
49567;BMP280;35472;50.514;30.448;2024-01-25T13:24:31;98643.56;;;6.89
49567;BMP280;35472;50.514;30.448;2024-01-25T13:26:57;98641.03;;;6.79
49567;BMP280;35472;50.514;30.448;2024-01-25T13:29:22;98638.75;;;6.77
49567;BMP280;35472;50.514;30.448;2024-01-25T13:31:48;98642.47;;;6.53
49567;BMP280;35472;50.514;30.448;2024-01-25T13:34:13;98641.09;;;6.41
49567;BMP280;35472;50.514;30.448;2024-01-25T13:36:38;98638.34;;;6.48
49567;BMP280;35472;50.514;30.448;2024-01-25T13:39:04;98635.75;;;6.41
49567;BMP280;35472;50.514;30.448;2024-01-25T13:41:29;98633.63;;;6.56
49567;BMP280;35472;50.514;30.448;2024-01-25T13:43:55;98631.72;;;6.26
49567;BMP280;35472;50.514;30.448;2024-01-25T13:46:20;98637.16;;;6.16
49567;BMP280;35472;50.514;30.448;2024-01-25T13:48:45;98644.66;;;6.28
49567;BMP280;35472;50.514;30.448;2024-01-25T13:51:12;98646.13;;;6.32
49567;BMP280;35472;50.514;30.448;2024-01-25T13:53:37;98645.97;;;6.46
49567;BMP280;35472;50.514;30.448;2024-01-25T13:56:03;98643.78;;;6.38
49567;BMP280;35472;50.514;30.448;2024-01-25T13:58:28;98646.09;;;6.36
49567;BMP280;35472;50.514;30.448;2024-01-25T14:00:54;98649.59;;;6.29
49567;BMP280;35472;50.514;30.448;2024-01-25T14:03:19;98649.59;;;6.29
49567;BMP280;35472;50.514;30.448;2024-01-25T14:05:45;98649.44;;;6.06
49567;BMP280;35472;50.514;30.448;2024-01-25T14:08:13;98652.09;;;6.06
49567;BMP280;35472;50.514;30.448;2024-01-25T14:10:39;98651.38;;;6.02
49567;BMP280;35472;50.514;30.448;2024-01-25T14:13:04;98648.56;;;5.79
49567;BMP280;35472;50.514;30.448;2024-01-25T14:15:34;98650.34;;;5.89
49567;BMP280;35472;50.514;30.448;2024-01-25T14:17:59;98658.97;;;5.66
49567;BMP280;35472;50.514;30.448;2024-01-25T14:20:25;98657.78;;;5.71
49567;BMP280;35472;50.514;30.448;2024-01-25T14:22:53;98646.31;;;5.74
49567;BMP280;35472;50.514;30.448;2024-01-25T14:25:19;98654.41;;;5.60